Loos, Canada
Current Conditions -  °F | °C
As of 9:32 PM on Saturday 25 Oct 2014 (Local Time) from CYXS Reporting Station
Light Snow Light Snow  
Wind Chill: 23°   Ceiling: 700
Heat Index: 32°   Visibility: 2mi
Dew Point: 32°   Wind: 12mph
Humidity: 100%   Direction: 350°N
Pressure: 29.41"   Gusts: NA
Location:  53.6°N, 120.72°W
Report Text: CYXS 260432Z AUTO 35010KT 2SM -SN SCT002 BKN007 OVC017 00/00 A2941 RMK VIS VRB 1 1/4-3 ICG PCPN 0.5MM PAST HR SLP986
Loading
Personal Weather Stations






























Interactive Weather Map New forecast layout! Learn more

10-Day Weather Forecast

Advertisements
Track Severe Weather on mobile